Terminal Aerodrome Forecast
Issued by NWS Charleston, WV

Current Version | Previous Version | Text Only | Print | Product List | Glossary Off
Versions: 1 2 3 4 5 6 7 8 9 10 11 12 13 14 15 16 17 18 19 20 21 22 23 24 25 26 27

000
FTUS41 KRLX 091100
TAFBKW
TAF
KBKW 091131Z 0912/1012 28006KT 4SM -RA BR SCT006 SCT014 OVC090
     FM091500 27008KT P6SM BKN040
     FM100400 00000KT P6SM SCT100=

USA.gov is the U.S. government's official web portal to all federal, state and local government web resources and services.